Time;durP1;ratioP1;P1;durP2;ratioP2;P2;SDS_P1;SDS_P2;PMS_P1;PMS_P2;Temp;Humidity;BMP_temperature;BMP_pressure;BME280_temperature;BME280_humidity;BME280_pressure;Samples;Min_cycle;Max_cycle;Signal;HPM_P1;HPM_P2
2021/01/31 00:00:35;;;;;;;17.17;8.63;;;;;;;-5.49;88.32;99912.64;124408;1108;64915;-81
2021/01/31 00:03:04;;;;;;;13.43;8.37;;;;;;;-5.62;87.99;99916.88;123984;1108;64972;-80
2021/01/31 00:05:31;;;;;;;14.77;9.30;;;;;;;-5.70;87.82;99919.08;123787;1109;64905;-81
2021/01/31 00:07:58;;;;;;;11.47;6.90;;;;;;;-5.78;87.54;99919.52;123992;1109;65007;-80
2021/01/31 00:10:32;;;;;;;13.67;7.27;;;;;;;-5.90;87.76;99918.50;123955;1109;64923;-80
2021/01/31 00:13:00;;;;;;;12.93;7.30;;;;;;;-5.99;88.58;99921.66;123880;1109;64923;-81
2021/01/31 00:15:33;;;;;;;12.50;7.67;;;;;;;-6.03;88.58;99922.75;124182;1109;63535;-81
2021/01/31 00:18:01;;;;;;;12.73;6.93;;;;;;;-6.06;89.21;99926.32;124138;1109;64873;-80
2021/01/31 00:20:32;;;;;;;14.73;7.63;;;;;;;-6.07;89.31;99921.27;123795;1109;64879;-81
2021/01/31 00:22:59;;;;;;;12.93;7.90;;;;;;;-6.09;89.39;99928.27;123961;1108;64940;-80
2021/01/31 00:25:26;;;;;;;19.47;9.83;;;;;;;-6.09;90.06;99917.94;124001;1108;64928;-83
2021/01/31 00:27:53;;;;;;;15.70;8.97;;;;;;;-6.11;89.10;99930.92;124102;1109;64930;-82
2021/01/31 00:30:25;;;;;;;21.00;10.03;;;;;;;-6.12;89.07;99929.25;124436;1109;65053;-83
2021/01/31 00:32:52;;;;;;;17.47;9.37;;;;;;;-6.11;90.29;99927.52;124101;1109;64949;-82
2021/01/31 00:35:21;;;;;;;16.80;9.83;;;;;;;-6.10;89.21;99921.42;124242;1108;64846;-82
2021/01/31 00:37:47;;;;;;;18.17;8.63;;;;;;;-6.12;90.02;99923.26;124342;1109;64934;-81
2021/01/31 00:40:15;;;;;;;20.47;9.93;;;;;;;-6.10;90.00;99926.59;124936;1109;64944;-82
2021/01/31 00:42:42;;;;;;;14.70;8.87;;;;;;;-6.11;90.20;99935.27;124560;1108;64956;-81
2021/01/31 00:45:11;;;;;;;17.07;8.87;;;;;;;-6.07;89.97;99936.76;124961;1109;62879;-81
2021/01/31 00:47:37;;;;;;;16.43;8.27;;;;;;;-6.09;89.70;99939.42;124550;1109;63586;-82
2021/01/31 00:50:04;;;;;;;15.97;8.47;;;;;;;-6.11;89.60;99935.27;124384;1109;64923;-81
2021/01/31 00:52:30;;;;;;;15.07;9.00;;;;;;;-6.13;89.98;99931.94;124012;1109;65029;-83
2021/01/31 00:54:57;;;;;;;12.68;7.50;;;;;;;-6.17;89.09;99931.27;123957;1109;64911;-82
2021/01/31 00:57:23;;;;;;;15.77;8.13;;;;;;;-6.23;89.65;99927.28;124357;1109;65387;-82
2021/01/31 00:59:49;;;;;;;17.13;9.10;;;;;;;-6.31;89.82;99933.80;124255;1109;64921;-82
2021/01/31 01:02:21;;;;;;;15.00;8.67;;;;;;;-6.35;88.74;99930.58;124568;1108;64938;-80
2021/01/31 01:04:48;;;;;;;11.85;7.75;;;;;;;-6.36;89.17;99927.14;124320;1107;64943;-82
2021/01/31 01:07:17;;;;;;;14.77;7.77;;;;;;;-6.37;89.15;99930.66;124594;1109;65030;-81
2021/01/31 01:09:46;;;;;;;12.20;7.43;;;;;;;-6.37;89.98;99938.39;124649;1108;65054;-82
2021/01/31 01:12:13;;;;;;;14.27;8.70;;;;;;;-6.40;89.31;99940.30;124284;1109;65014;-82
2021/01/31 01:14:40;;;;;;;16.60;7.57;;;;;;;-6.41;89.81;99933.50;124783;1109;63593;-83
2021/01/31 01:17:06;;;;;;;13.57;7.30;;;;;;;-6.42;89.80;99942.14;124919;1109;63961;-82
2021/01/31 01:19:32;;;;;;;17.63;8.97;;;;;;;-6.45;90.19;99937.16;124542;1109;64895;-82
2021/01/31 01:21:58;;;;;;;15.37;9.10;;;;;;;-6.56;89.41;99938.58;124839;1109;64956;-83
2021/01/31 01:24:24;;;;;;;17.43;9.57;;;;;;;-6.53;88.89;99939.33;124589;1109;64902;-82
2021/01/31 01:26:51;;;;;;;21.53;10.90;;;;;;;-6.60;89.25;99934.50;124589;1109;64920;-83
2021/01/31 01:29:17;;;;;;;15.97;9.23;;;;;;;-6.69;89.06;99937.59;124522;1108;65039;-82
2021/01/31 01:31:44;;;;;;;21.53;9.70;;;;;;;-6.74;88.90;99937.00;124616;1108;65006;-82
2021/01/31 01:34:10;;;;;;;19.40;10.10;;;;;;;-6.80;88.12;99932.17;124661;1109;64953;-82
2021/01/31 01:36:36;;;;;;;15.73;8.87;;;;;;;-6.87;89.10;99921.36;124662;1109;64923;-83
2021/01/31 01:39:03;;;;;;;14.35;8.38;;;;;;;-6.89;89.78;99928.34;124877;1109;64989;-83
2021/01/31 01:41:41;;;;;;;15.37;7.97;;;;;;;-6.90;89.47;99925.87;124636;1109;64830;-82
2021/01/31 01:44:08;;;;;;;14.93;7.97;;;;;;;-6.95;89.68;99927.84;124504;1109;65065;-82
2021/01/31 01:46:42;;;;;;;13.70;8.20;;;;;;;-7.02;89.34;99925.59;124021;1109;65016;-82
2021/01/31 01:49:23;;;;;;;15.53;7.78;;;;;;;-7.02;89.67;99923.02;124546;1109;64981;-82
2021/01/31 01:51:57;;;;;;;13.27;8.80;;;;;;;-7.04;90.03;99922.27;124202;1109;64926;-81
2021/01/31 01:54:30;;;;;;;15.60;8.30;;;;;;;-6.98;89.30;99924.52;124365;1107;64934;-81
2021/01/31 01:57:04;;;;;;;15.40;8.53;;;;;;;-6.97;89.40;99925.34;124488;1109;64927;-81
2021/01/31 01:59:31;;;;;;;16.40;8.55;;;;;;;-7.01;89.47;99921.30;124413;1108;64924;-81
2021/01/31 02:02:30;;;;;;;14.47;8.00;;;;;;;-7.04;89.65;99924.84;124512;1109;64886;-83
2021/01/31 02:05:02;;;;;;;15.77;8.93;;;;;;;-7.07;89.23;99925.02;124244;1109;64965;-82
2021/01/31 02:07:28;;;;;;;16.83;9.10;;;;;;;-7.05;89.73;99923.20;124040;1109;64898;-82
2021/01/31 02:09:54;;;;;;;19.70;7.97;;;;;;;-7.03;89.11;99920.55;124147;1108;64815;-82
2021/01/31 02:12:25;;;;;;;16.55;7.75;;;;;;;-7.01;89.13;99924.70;124264;1109;64901;-81
2021/01/31 02:14:55;;;;;;;16.73;9.97;;;;;;;-7.04;88.40;99927.42;124669;1109;63161;-83
2021/01/31 02:17:36;;;;;;;12.90;8.13;;;;;;;-7.10;88.92;99927.75;124891;1109;64928;-83
2021/01/31 02:20:24;;;;;;;17.23;8.53;;;;;;;-7.24;87.57;99932.81;124254;1109;65424;-82
2021/01/31 02:23:25;;;;;;;16.63;8.10;;;;;;;-7.37;87.71;99937.78;124231;1109;64860;-82
2021/01/31 02:26:00;;;;;;;18.63;8.93;;;;;;;-7.51;88.21;99935.91;124413;1108;64966;-83
2021/01/31 02:28:54;;;;;;;14.40;8.20;;;;;;;-7.58;88.10;99944.86;124962;1109;64870;-83
2021/01/31 02:31:46;;;;;;;18.50;9.83;;;;;;;-7.67;88.48;99940.16;124247;1109;64978;-82
2021/01/31 02:34:21;;;;;;;17.20;9.53;;;;;;;-7.65;88.70;99941.77;124239;1109;65026;-82
2021/01/31 02:37:06;;;;;;;;;;;;;;;-7.64;88.63;99940.02;124312;1109;64952;-82
2021/01/31 02:39:46;;;;;;;13.83;7.67;;;;;;;-7.66;89.14;99949.56;124221;1109;64963;-82
2021/01/31 02:42:31;;;;;;;13.13;8.97;;;;;;;-7.71;88.74;99944.66;124735;1109;64947;-81
2021/01/31 02:45:09;;;;;;;18.47;8.80;;;;;;;-7.74;89.29;99939.64;124302;1109;64952;-82
2021/01/31 02:47:42;;;;;;;14.90;9.00;;;;;;;-7.74;89.87;99949.94;124860;1109;64877;-83
2021/01/31 02:50:17;;;;;;;14.07;8.30;;;;;;;-7.76;88.45;99940.63;125184;1109;65055;-82
2021/01/31 02:53:11;;;;;;;13.70;8.53;;;;;;;-7.79;88.90;99937.30;124852;1109;65240;-83
2021/01/31 02:55:43;;;;;;;13.97;7.70;;;;;;;-7.76;89.54;99935.48;124838;1109;64949;-83
2021/01/31 02:58:27;;;;;;;18.73;8.20;;;;;;;-7.82;89.43;99926.31;124569;1108;64943;-83
2021/01/31 03:01:03;;;;;;;13.83;8.63;;;;;;;-7.80;88.90;99925.36;124878;1109;64978;-83
2021/01/31 03:03:41;;;;;;;15.07;8.13;;;;;;;-7.79;90.27;99932.16;124667;1109;64972;-83
2021/01/31 03:06:14;;;;;;;12.57;7.80;;;;;;;-7.75;89.29;99926.87;124495;1108;64941;-83
2021/01/31 03:08:48;;;;;;;12.53;6.97;;;;;;;-7.77;89.15;99926.11;125001;1108;64975;-82
2021/01/31 03:11:25;;;;;;;13.83;6.53;;;;;;;-7.81;89.01;99926.25;125155;1108;64818;-82
2021/01/31 03:14:35;;;;;;;14.53;7.27;;;;;;;-7.82;88.78;99927.17;124230;1108;65087;-83
2021/01/31 03:17:13;;;;;;;10.23;6.67;;;;;;;-7.84;89.67;99922.98;124918;1109;64888;-83
2021/01/31 03:19:52;;;;;;;10.60;6.77;;;;;;;-7.83;88.73;99935.79;124839;1109;64847;-84
2021/01/31 03:22:25;;;;;;;12.67;7.47;;;;;;;-7.85;88.27;99934.20;124297;1109;64902;-82
2021/01/31 03:24:57;;;;;;;11.90;6.93;;;;;;;-7.82;88.57;99936.61;124510;1109;64289;-83
2021/01/31 03:27:37;;;;;;;12.30;7.07;;;;;;;-7.81;89.81;99939.12;124426;1109;64990;-82
2021/01/31 03:30:06;;;;;;;13.17;7.43;;;;;;;-7.82;88.96;99942.62;124529;1109;64981;-81
2021/01/31 03:32:46;;;;;;;14.53;7.27;;;;;;;-7.84;89.34;99938.43;125185;1109;64923;-82
2021/01/31 03:35:25;;;;;;;10.37;6.43;;;;;;;-7.83;89.03;99940.94;124928;1109;64883;-81
2021/01/31 03:38:09;;;;;;;10.90;6.70;;;;;;;-7.82;88.23;99940.05;124071;1109;64931;-81
2021/01/31 03:40:36;;;;;;;11.60;6.40;;;;;;;-7.87;88.89;99931.70;124860;1109;64527;-81
2021/01/31 03:43:03;;;;;;;12.20;7.13;;;;;;;-7.91;88.34;99932.76;125245;1109;64862;-83
2021/01/31 03:45:37;;;;;;;15.30;8.97;;;;;;;-7.91;89.28;99932.76;124892;1109;63584;-81
2021/01/31 03:48:11;;;;;;;17.20;8.70;;;;;;;-7.91;88.83;99943.05;124397;1109;63711;-82
2021/01/31 03:50:38;;;;;;;15.10;7.47;;;;;;;-7.92;87.88;99938.83;125048;1109;64140;-82
2021/01/31 03:53:05;;;;;;;13.03;7.37;;;;;;;-7.93;88.42;99934.58;125264;1109;63848;-82
2021/01/31 03:55:31;;;;;;;10.70;6.83;;;;;;;-7.97;87.42;99939.95;125239;1109;64947;-82
2021/01/31 03:58:02;;;;;;;14.80;7.83;;;;;;;-8.01;87.39;99931.55;124486;1109;64981;-82
2021/01/31 04:00:31;;;;;;;13.47;6.83;;;;;;;-8.05;88.09;99930.06;124115;1109;64796;-81
2021/01/31 04:03:14;;;;;;;12.90;7.60;;;;;;;-8.08;87.90;99930.19;125474;1109;64880;-82
2021/01/31 04:05:53;;;;;;;11.03;6.70;;;;;;;-8.16;86.99;99930.55;125041;1109;64863;-82
2021/01/31 04:08:20;;;;;;;15.80;8.87;;;;;;;-8.24;86.74;99933.52;125383;1108;64889;-82
2021/01/31 04:10:46;;;;;;;18.97;8.13;;;;;;;-8.25;87.21;99929.27;125304;1109;64767;-82
2021/01/31 04:13:13;;;;;;;18.37;9.20;;;;;;;-8.26;87.60;99925.05;124543;1109;64954;-81
2021/01/31 04:15:45;;;;;;;17.27;8.50;;;;;;;-8.31;87.25;99928.73;125005;1109;64837;-82
2021/01/31 04:18:14;;;;;;;17.60;9.13;;;;;;;-8.33;88.05;99933.13;125015;1109;64965;-83
2021/01/31 04:20:44;;;;;;;13.80;7.63;;;;;;;-8.35;87.80;99925.50;124720;1109;64994;-81
2021/01/31 04:23:11;;;;;;;14.57;7.30;;;;;;;-8.31;87.97;99931.30;124176;1109;64959;-81
2021/01/31 04:25:38;;;;;;;13.30;8.37;;;;;;;-8.29;87.24;99932.06;124162;1109;64976;-80
2021/01/31 04:28:19;;;;;;;11.90;7.80;;;;;;;-8.26;88.31;99926.79;124244;1109;64985;-80
2021/01/31 04:30:49;;;;;;;10.20;6.10;;;;;;;-8.24;87.06;99928.38;124487;1109;64966;-82
2021/01/31 04:33:16;;;;;;;13.65;7.75;;;;;;;-8.23;87.73;99931.77;124225;1109;64969;-81
2021/01/31 04:35:42;;;;;;;10.93;6.10;;;;;;;-8.22;87.41;99928.31;125091;1107;64908;-83
2021/01/31 04:38:09;;;;;;;10.95;6.80;;;;;;;-8.27;87.42;99928.51;125101;1108;64921;-82
2021/01/31 04:40:35;;;;;;;14.15;7.10;;;;;;;-8.37;86.17;99924.73;124961;1109;64972;-82
2021/01/31 04:43:05;;;;;;;12.90;7.45;;;;;;;-8.41;87.02;99921.50;124854;1109;65004;-81
2021/01/31 04:45:35;;;;;;;12.33;6.20;;;;;;;-8.40;86.92;99930.02;124486;1109;64947;-81
2021/01/31 04:48:20;;;;;;;15.10;7.20;;;;;;;-8.40;86.74;99930.02;125292;1108;64965;-82
2021/01/31 04:50:46;;;;;;;;;;;;;;;-8.41;86.54;99934.36;125347;1108;64941;-83
2021/01/31 04:53:38;;;;;;;15.45;8.15;;;;;;;-8.41;87.47;99936.11;124152;1109;64879;-83
2021/01/31 04:56:34;;;;;;;13.20;7.83;;;;;;;-8.43;87.22;99932.78;124879;1112;63713;-83
2021/01/31 04:59:23;;;;;;;12.80;7.40;;;;;;;-8.44;87.38;99928.52;125277;1109;64601;-83
2021/01/31 05:02:00;;;;;;;12.63;7.87;;;;;;;-8.43;87.07;99925.89;125301;1109;64972;-82
2021/01/31 05:04:32;;;;;;;14.10;7.07;;;;;;;-8.49;86.65;99926.17;124492;1109;64981;-81
2021/01/31 05:07:05;;;;;;;12.40;6.13;;;;;;;-8.53;86.37;99939.25;124098;1109;64870;-81
2021/01/31 05:09:31;;;;;;;13.53;6.80;;;;;;;-8.56;87.08;99939.38;124133;1109;65020;-81
2021/01/31 05:12:14;;;;;;;13.50;6.87;;;;;;;-8.54;86.93;99940.14;124069;1109;64920;-82
2021/01/31 05:15:02;;;;;;;13.20;7.37;;;;;;;-8.49;87.76;99935.64;124057;1109;65394;-81
2021/01/31 05:17:30;;;;;;;13.03;7.73;;;;;;;-8.46;87.13;99935.48;124481;1109;64925;-81
2021/01/31 05:19:57;;;;;;;14.23;7.97;;;;;;;-8.42;88.12;99937.00;125102;1109;64920;-82
2021/01/31 05:22:29;;;;;;;16.13;7.77;;;;;;;-8.44;87.60;99938.81;124380;1109;64873;-81
2021/01/31 05:24:55;;;;;;;16.03;8.50;;;;;;;-8.50;87.64;99946.81;124251;1109;65369;-81
2021/01/31 05:27:29;;;;;;;14.53;7.07;;;;;;;-8.53;86.71;99934.94;124802;1109;64915;-81
2021/01/31 05:29:55;;;;;;;13.03;7.00;;;;;;;-8.53;87.22;99932.37;124623;1109;64969;-82
2021/01/31 05:32:21;;;;;;;16.47;8.73;;;;;;;-8.50;87.41;99933.95;124493;1109;65483;-81
2021/01/31 05:34:53;;;;;;;10.83;6.83;;;;;;;-8.48;87.38;99924.42;124001;1109;64952;-82
2021/01/31 05:37:26;;;;;;;17.50;8.00;;;;;;;-8.51;86.95;99927.16;124215;1109;64984;-84
2021/01/31 05:40:00;;;;;;;13.50;7.10;;;;;;;-8.54;86.29;99935.00;124086;1109;64959;-84
2021/01/31 05:42:30;;;;;;;15.20;7.60;;;;;;;-8.55;86.83;99928.21;124570;1108;64952;-84
2021/01/31 05:45:05;;;;;;;15.30;6.70;;;;;;;-8.59;86.38;99934.40;124529;1109;63741;-85
2021/01/31 05:47:36;;;;;;;12.00;7.13;;;;;;;-8.66;85.96;99944.14;125072;1109;64893;-83
2021/01/31 05:50:30;;;;;;;13.90;7.00;;;;;;;-8.68;86.96;99946.77;125219;1109;64981;-83
2021/01/31 05:52:57;;;;;;;8.50;5.97;;;;;;;-8.68;86.35;99943.38;125333;1109;65020;-83
2021/01/31 05:55:32;;;;;;;16.80;6.67;;;;;;;-8.70;86.46;99943.44;125205;1109;64688;-83
2021/01/31 05:58:18;;;;;;;15.43;7.13;;;;;;;-8.72;87.18;99944.42;125332;1109;64867;-84
2021/01/31 06:00:46;;;;;;;14.83;6.72;;;;;;;-8.71;86.73;99946.94;124860;1109;65483;-83
2021/01/31 06:03:19;;;;;;;14.90;7.33;;;;;;;-8.70;87.03;99943.44;124737;1109;64956;-83
2021/01/31 06:05:46;;;;;;;15.67;7.23;;;;;;;-8.69;86.82;99952.84;124661;1109;64933;-82
2021/01/31 06:08:27;;;;;;;11.63;5.73;;;;;;;-8.66;87.05;99949.28;124231;1109;64953;-83
2021/01/31 06:11:09;;;;;;;12.57;7.00;;;;;;;-8.67;86.88;99955.31;124951;1109;62987;-84
2021/01/31 06:13:36;;;;;;;11.97;6.43;;;;;;;-8.68;86.63;99957.06;124722;1109;64892;-85
2021/01/31 06:16:06;;;;;;;12.70;6.70;;;;;;;-8.69;86.48;99950.27;124812;1109;64943;-83
2021/01/31 06:18:45;;;;;;;11.33;6.63;;;;;;;-8.71;86.63;99957.21;124783;1109;64873;-83
2021/01/31 06:21:39;;;;;;;14.47;6.77;;;;;;;-8.69;86.79;99957.13;124911;1109;64766;-83
2021/01/31 06:24:23;;;;;;;15.07;7.17;;;;;;;-8.69;86.05;99967.41;124168;1109;64875;-81
2021/01/31 06:26:50;;;;;;;13.53;6.60;;;;;;;-8.69;86.18;99959.69;124120;1109;65662;-81
2021/01/31 06:29:30;;;;;;;16.57;7.13;;;;;;;-8.75;86.20;99960.00;123887;1109;64936;-81
2021/01/31 06:32:05;;;;;;;12.43;6.27;;;;;;;-8.86;85.76;99957.89;124048;1109;65004;-81
2021/01/31 06:34:31;;;;;;;12.50;7.00;;;;;;;-8.97;85.07;99954.98;124253;1109;65087;-82
2021/01/31 06:37:28;;;;;;;15.40;8.03;;;;;;;-9.07;84.81;99955.41;124135;1109;64975;-80
2021/01/31 06:40:06;;;;;;;18.17;6.77;;;;;;;-9.11;86.26;99951.31;124712;1109;65054;-82
2021/01/31 06:42:54;;;;;;;14.47;7.63;;;;;;;-9.17;86.08;99954.15;124679;1109;64802;-81
2021/01/31 06:45:34;;;;;;;14.30;6.55;;;;;;;-9.16;86.43;99954.97;124622;1109;65055;-83
2021/01/31 06:48:29;;;;;;;15.40;7.53;;;;;;;-9.17;86.18;99958.45;124288;1109;64850;-82
2021/01/31 06:51:05;;;;;;;13.83;7.97;;;;;;;-9.12;87.08;99956.51;123932;1109;64978;-81
2021/01/31 06:53:31;;;;;;;13.97;6.40;;;;;;;-9.14;86.22;99964.27;124024;1109;64960;-81
2021/01/31 06:56:32;;;;;;;14.00;7.62;;;;;;;-9.17;86.19;99959.28;123997;1108;64856;-81
2021/01/31 06:59:10;;;;;;;15.30;7.20;;;;;;;-9.11;87.31;99964.16;124178;1107;64987;-81
2021/01/31 07:01:51;;;;;;;17.50;7.43;;;;;;;-9.06;87.57;99967.34;124787;1112;63780;-81
2021/01/31 07:04:36;;;;;;;18.17;8.03;;;;;;;-8.98;87.39;99971.33;124750;1109;64869;-81
2021/01/31 07:07:34;;;;;;;14.50;6.33;;;;;;;-8.95;87.15;99974.56;124628;1109;64912;-82
2021/01/31 07:10:10;;;;;;;11.97;6.70;;;;;;;-8.92;86.85;99976.19;124663;1109;64981;-82
2021/01/31 07:13:03;;;;;;;11.57;6.47;;;;;;;-8.94;86.62;99971.11;124547;1109;63391;-82
2021/01/31 07:16:00;;;;;;;15.17;5.97;;;;;;;-8.91;86.66;99967.56;124599;1109;64944;-83
2021/01/31 07:18:31;;;;;;;11.83;6.03;;;;;;;-8.91;86.32;99976.09;124513;1109;64912;-81
2021/01/31 07:20:59;;;;;;;9.90;6.17;;;;;;;-8.90;86.39;99979.52;123957;1107;65077;-81
2021/01/31 07:23:38;;;;;;;14.77;7.33;;;;;;;-8.95;86.23;99974.56;123870;1109;63592;-82
2021/01/31 07:26:35;;;;;;;14.53;7.80;;;;;;;-8.98;86.17;99979.03;124528;1109;65024;-81
2021/01/31 07:29:07;;;;;;;12.07;5.27;;;;;;;-8.99;85.67;99967.07;123759;1109;65007;-81
2021/01/31 07:31:48;;;;;;;11.50;5.95;;;;;;;-8.95;86.16;99968.60;124075;1109;64920;-83
2021/01/31 07:34:34;;;;;;;14.87;7.60;;;;;;;-8.90;86.60;99962.36;124305;1109;64883;-82
2021/01/31 07:37:20;;;;;;;;;;;;;;;-8.88;85.55;99969.98;124220;1106;64895;-82
2021/01/31 07:39:46;;;;;;;;;;;;;;;-8.86;86.40;99975.88;124661;1108;64876;-81
2021/01/31 07:42:16;;;;;;;19.57;7.03;;;;;;;-8.77;86.30;99975.48;124366;1109;65001;-82
2021/01/31 07:44:44;;;;;;;17.17;7.83;;;;;;;-8.69;85.71;99975.98;124466;1109;65065;-82
2021/01/31 07:47:11;;;;;;;15.00;7.67;;;;;;;-8.67;85.52;99966.45;124467;1109;63651;-82
2021/01/31 07:49:59;;;;;;;18.47;8.77;;;;;;;-8.53;85.79;99975.26;124848;1109;65007;-83
2021/01/31 07:52:28;;;;;;;14.57;8.53;;;;;;;-8.49;85.10;99976.78;125106;1108;63890;-83
2021/01/31 07:55:38;;;;;;;17.47;8.47;;;;;;;-8.44;84.87;99982.53;124825;1109;65407;-83
2021/01/31 07:58:09;;;;;;;15.93;9.53;;;;;;;-8.34;85.06;99976.02;124402;1109;65032;-81
2021/01/31 08:00:41;;;;;;;18.03;8.67;;;;;;;-8.25;85.74;99990.19;124528;1108;64885;-80
2021/01/31 08:03:18;;;;;;;17.40;9.40;;;;;;;-8.11;85.30;99981.83;124332;1109;64957;-80
2021/01/31 08:05:53;;;;;;;16.20;9.03;;;;;;;-8.01;84.61;99975.30;124295;1109;64929;-80
2021/01/31 08:08:39;;;;;;;20.43;8.30;;;;;;;-7.93;85.52;99969.78;123865;1109;66544;-80
2021/01/31 08:11:16;;;;;;;22.80;8.35;;;;;;;-7.86;85.51;99971.14;123770;1109;64947;-79
2021/01/31 08:13:47;;;;;;;17.23;8.17;;;;;;;-7.76;84.53;99976.68;124362;1109;64873;-81
2021/01/31 08:16:48;;;;;;;16.47;8.70;;;;;;;-7.68;84.85;99972.81;124377;1109;64972;-80
2021/01/31 08:19:17;;;;;;;14.60;8.10;;;;;;;-7.56;84.43;99973.95;123769;1109;64944;-80
2021/01/31 08:21:49;;;;;;;18.47;8.97;;;;;;;-7.52;84.73;99975.47;124240;1109;64976;-80
2021/01/31 08:24:54;;;;;;;14.57;7.73;;;;;;;-7.46;84.32;99976.88;124263;1109;65042;-82
2021/01/31 08:27:42;;;;;;;15.93;7.27;;;;;;;-7.44;83.94;99975.05;124009;1108;65013;-80
2021/01/31 08:30:30;;;;;;;20.83;11.07;;;;;;;-7.42;84.35;99966.33;124164;1109;65010;-81
2021/01/31 08:33:02;;;;;;;19.80;11.23;;;;;;;-7.37;83.71;99968.70;124186;1109;64962;-82
2021/01/31 08:35:42;;;;;;;16.00;9.47;;;;;;;-7.26;84.90;99976.70;124190;1109;65268;-81
2021/01/31 08:38:24;;;;;;;20.13;10.33;;;;;;;-7.15;84.84;99973.56;123940;1109;64935;-80
2021/01/31 08:41:03;;;;;;;24.20;11.85;;;;;;;-6.97;85.47;99971.75;124156;1109;65134;-81
2021/01/31 08:43:38;;;;;;;26.13;11.57;;;;;;;-6.79;84.70;99959.64;123767;1109;64946;-80
2021/01/31 08:46:06;;;;;;;;;;;;;;;-6.63;84.84;99964.78;124131;1108;64950;-80
2021/01/31 08:48:32;;;;;;;20.47;11.10;;;;;;;-6.47;84.53;99965.62;124296;1108;64927;-80
2021/01/31 08:51:09;;;;;;;26.70;10.67;;;;;;;-6.33;84.48;99962.29;124131;1107;64902;-80
2021/01/31 08:53:35;;;;;;;20.10;11.27;;;;;;;-6.14;84.95;99962.09;124399;1108;64933;-81
2021/01/31 08:56:21;;;;;;;16.07;10.10;;;;;;;-6.00;84.99;99964.70;124474;1109;63748;-82
2021/01/31 08:58:49;;;;;;;18.97;10.47;;;;;;;-5.79;84.96;99967.77;124376;1109;64924;-82
2021/01/31 09:01:16;;;;;;;17.63;10.97;;;;;;;-5.63;84.48;99959.12;124326;1109;64783;-82
2021/01/31 09:03:44;;;;;;;19.40;11.73;;;;;;;-5.44;85.00;99971.80;124279;1109;64909;-83
2021/01/31 09:06:11;;;;;;;25.73;11.30;;;;;;;-5.30;84.25;99969.23;124630;1109;66039;-81
2021/01/31 09:08:40;;;;;;;19.85;10.85;;;;;;;-5.17;84.28;99970.16;124399;1108;64902;-81
2021/01/31 09:11:11;;;;;;;18.53;10.03;;;;;;;-5.12;82.90;99967.31;124261;1109;64815;-80
2021/01/31 09:13:38;;;;;;;16.33;9.07;;;;;;;-5.08;82.03;99963.59;123927;1109;65090;-81
2021/01/31 09:16:17;;;;;;;18.47;9.47;;;;;;;-5.04;82.12;99959.90;124489;1109;64931;-81
2021/01/31 09:18:44;;;;;;;17.70;10.07;;;;;;;-4.92;82.43;99968.68;123360;1109;65119;-78
2021/01/31 09:21:26;;;;;;;18.27;11.10;;;;;;;-4.87;81.98;99965.80;123152;1109;64923;-77
2021/01/31 09:24:00;;;;;;;19.55;11.50;;;;;;;-4.86;81.73;99962.31;123190;1109;65561;-78
2021/01/31 09:26:28;;;;;;;22.50;11.40;;;;;;;-4.80;82.33;99959.31;123267;1109;65019;-78
2021/01/31 09:28:56;;;;;;;18.03;10.03;;;;;;;-4.66;82.43;99954.13;123338;1107;64950;-78
2021/01/31 09:31:26;;;;;;;17.87;9.77;;;;;;;-4.54;82.92;99974.06;123303;1109;65386;-78
2021/01/31 09:33:59;;;;;;;15.03;7.43;;;;;;;-4.41;82.19;99968.12;123186;1109;64940;-78
2021/01/31 09:36:32;;;;;;;13.40;7.87;;;;;;;-4.34;82.17;99964.20;123374;1108;64975;-77
2021/01/31 09:39:00;;;;;;;14.30;8.07;;;;;;;-4.23;82.00;99966.10;123258;1109;64886;-77
2021/01/31 09:41:28;;;;;;;14.33;8.13;;;;;;;-4.13;82.12;99967.18;123361;1109;64982;-77
2021/01/31 09:43:57;;;;;;;14.17;7.00;;;;;;;-4.02;82.15;99976.84;123175;1109;64946;-77
2021/01/31 09:46:25;;;;;;;16.60;8.30;;;;;;;-3.95;81.75;99975.53;123191;1108;64965;-77
2021/01/31 09:49:03;;;;;;;13.47;7.97;;;;;;;-3.90;81.67;99976.88;123150;1109;65010;-78
2021/01/31 09:51:31;;;;;;;14.80;7.90;;;;;;;-3.88;80.85;99986.33;123169;1109;64901;-78
2021/01/31 09:54:19;;;;;;;11.70;6.90;;;;;;;-3.79;81.75;99986.54;123404;1109;64975;-76
2021/01/31 09:56:59;;;;;;;15.57;8.40;;;;;;;-3.61;81.84;99983.66;123122;1109;64933;-78
2021/01/31 09:59:29;;;;;;;16.47;7.87;;;;;;;-3.51;82.15;99984.71;123269;1109;65029;-77
2021/01/31 10:02:09;;;;;;;17.47;9.27;;;;;;;-3.47;82.26;99986.17;123180;1108;64870;-77
2021/01/31 10:04:38;;;;;;;18.43;9.13;;;;;;;-3.38;81.79;99989.91;123144;1108;64963;-77
2021/01/31 10:07:05;;;;;;;19.30;9.13;;;;;;;-3.24;81.63;99976.02;123174;1109;64873;-78
2021/01/31 10:09:35;;;;;;;14.27;9.13;;;;;;;-3.14;81.71;99980.48;123171;1109;65010;-77
2021/01/31 10:12:31;;;;;;;15.90;9.70;;;;;;;-2.97;82.14;99991.47;123411;1109;64953;-78
2021/01/31 10:15:07;;;;;;;19.07;10.53;;;;;;;-2.82;81.67;99992.18;123195;1108;64981;-78
2021/01/31 10:17:43;;;;;;;18.47;10.30;;;;;;;-2.67;81.18;99993.70;123166;1109;64946;-78
2021/01/31 10:20:29;;;;;;;18.70;10.67;;;;;;;-2.55;82.08;99981.60;123142;1109;64975;-77
2021/01/31 10:23:02;;;;;;;18.37;9.77;;;;;;;-2.44;80.87;99986.03;123259;1108;65146;-77
2021/01/31 10:25:29;;;;;;;21.00;10.00;;;;;;;-2.31;82.04;99976.45;123161;1109;65078;-78
2021/01/31 10:27:58;;;;;;;18.05;9.65;;;;;;;-2.16;82.02;99985.73;123150;1109;64895;-78
2021/01/31 10:30:50;;;;;;;16.53;9.90;;;;;;;-2.08;80.44;99978.22;123013;1109;64914;-77
2021/01/31 10:33:38;;;;;;;14.20;7.70;;;;;;;-1.97;81.04;99980.03;123164;1109;64943;-78
2021/01/31 10:36:34;;;;;;;20.57;10.97;;;;;;;-1.85;80.40;99983.48;123113;1109;65133;-78
2021/01/31 10:39:09;;;;;;;13.47;7.83;;;;;;;-1.73;80.18;99976.56;123137;1109;64943;-79
2021/01/31 10:41:39;;;;;;;14.68;8.33;;;;;;;-1.68;79.95;99969.23;123214;1109;65001;-77
2021/01/31 10:44:09;;;;;;;21.13;8.97;;;;;;;-1.59;79.46;99972.92;123152;1109;66217;-78
2021/01/31 10:46:37;;;;;;;14.83;7.37;;;;;;;-1.55;79.04;99974.35;123605;1109;65376;-78
2021/01/31 10:49:04;;;;;;;17.60;8.23;;;;;;;-1.41;79.73;99979.36;123581;1108;65297;-79
2021/01/31 10:51:33;;;;;;;14.80;7.33;;;;;;;-1.31;78.57;99975.12;123136;1109;64920;-79
2021/01/31 10:54:01;;;;;;;15.23;8.50;;;;;;;-1.27;79.03;99963.53;123255;1109;65017;-79
2021/01/31 10:56:28;;;;;;;12.43;8.00;;;;;;;-1.21;79.29;99964.00;123265;1109;65030;-77
2021/01/31 10:58:57;;;;;;;15.80;8.13;;;;;;;-1.16;79.15;99964.49;123075;1109;64889;-78
2021/01/31 11:01:24;;;;;;;13.03;6.93;;;;;;;-1.07;79.57;99961.17;123181;1109;64933;-78
2021/01/31 11:03:50;;;;;;;15.57;7.90;;;;;;;-0.93;78.80;99970.53;123177;1109;65014;-79
2021/01/31 11:06:20;;;;;;;11.63;6.73;;;;;;;-0.88;77.21;99958.80;123261;1109;64883;-78
2021/01/31 11:08:47;;;;;;;15.33;7.37;;;;;;;-0.94;75.80;99948.03;123339;1109;64990;-78
2021/01/31 11:11:14;;;;;;;14.97;7.33;;;;;;;-0.96;77.33;99950.75;123319;1107;64897;-78
2021/01/31 11:13:40;;;;;;;20.70;8.00;;;;;;;-0.87;77.94;99950.05;123403;1109;64928;-77
2021/01/31 11:16:06;;;;;;;12.90;7.85;;;;;;;-0.78;76.47;99943.30;123307;1107;65020;-78
2021/01/31 11:18:33;;;;;;;15.63;8.65;;;;;;;-0.63;78.14;99934.27;123332;1109;66147;-78
2021/01/31 11:20:59;;;;;;;15.17;8.23;;;;;;;-0.47;77.34;99933.89;123156;1108;64918;-78
2021/01/31 11:23:25;;;;;;;16.73;7.43;;;;;;;-0.41;76.89;99930.77;123154;1109;66076;-79
2021/01/31 11:25:51;;;;;;;15.93;9.10;;;;;;;-0.30;77.07;99922.11;123230;1109;64959;-78
2021/01/31 11:28:18;;;;;;;14.73;7.00;;;;;;;-0.12;77.72;99919.77;123415;1109;65001;-78
2021/01/31 11:30:45;;;;;;;15.90;7.40;;;;;;;0.16;77.18;99922.72;123056;1109;65184;-78
2021/01/31 11:33:12;;;;;;;15.00;8.27;;;;;;;0.26;76.60;99917.58;123451;1109;64960;-79
2021/01/31 11:35:39;;;;;;;14.93;8.37;;;;;;;0.39;75.59;99913.80;123257;1109;65030;-77
2021/01/31 11:38:06;;;;;;;24.45;9.95;;;;;;;0.71;75.79;99914.66;123189;1109;65003;-77
2021/01/31 11:40:32;;;;;;;15.70;7.30;;;;;;;1.04;74.55;99916.13;123142;1109;65039;-77
2021/01/31 11:42:59;;;;;;;18.20;8.70;;;;;;;1.42;74.15;99910.20;123375;1109;64949;-77
2021/01/31 11:45:27;;;;;;;19.98;9.73;;;;;;;1.88;73.89;99913.11;123240;1109;64988;-78
2021/01/31 11:47:54;;;;;;;13.63;8.43;;;;;;;2.33;73.11;99911.69;123253;1109;65007;-77